Time;durP1;ratioP1;P1;durP2;ratioP2;P2;SDS_P1;SDS_P2;PMS_P1;PMS_P2;Temp;Humidity;BMP_temperature;BMP_pressure;BME280_temperature;BME280_humidity;BME280_pressure;Samples;Min_cycle;Max_cycle;Signal;HPM_P1;HPM_P2
2023/01/15 00:01:23;;;;;;;10.93;2.17;;;6.50;99.90;;;;;;5071057;28;20432;-71
2023/01/15 00:03:49;;;;;;;11.30;1.70;;;6.50;99.90;;;;;;5068777;28;20439;-71
2023/01/15 00:06:15;;;;;;;14.93;2.65;;;6.50;99.90;;;;;;5067297;28;20419;-72
2023/01/15 00:08:41;;;;;;;11.23;2.30;;;6.40;99.90;;;;;;5076472;28;20517;-70
2023/01/15 00:11:07;;;;;;;14.60;2.60;;;6.50;99.90;;;;;;5065770;28;20514;-71
2023/01/15 00:13:33;;;;;;;11.32;1.92;;;6.50;99.90;;;;;;5078531;28;20909;-71
2023/01/15 00:16:06;;;;;;;16.02;3.03;;;6.50;99.90;;;;;;5072096;28;20949;-71
2023/01/15 00:18:32;;;;;;;14.63;2.60;;;6.50;99.90;;;;;;5067545;28;20420;-69
2023/01/15 00:21:02;;;;;;;13.25;3.30;;;6.40;99.90;;;;;;5076562;28;20425;-71
2023/01/15 00:29:04;;;;;;;8.95;1.83;;;6.50;99.90;;;;;;5099219;27;20779;-70
2023/01/15 00:31:30;;;;;;;14.18;2.35;;;6.50;99.90;;;;;;5078144;28;20467;-71
2023/01/15 00:33:56;;;;;;;12.57;3.30;;;6.50;99.90;;;;;;5076194;28;20523;-72
2023/01/15 00:36:22;;;;;;;9.87;2.33;;;6.50;99.90;;;;;;5082516;28;21204;-70
2023/01/15 00:38:48;;;;;;;10.30;2.53;;;6.40;99.90;;;;;;5077497;28;20429;-70
2023/01/15 00:41:14;;;;;;;15.40;2.67;;;6.40;99.90;;;;;;5065688;28;20420;-72
2023/01/15 00:43:39;;;;;;;11.75;2.50;;;6.50;99.90;;;;;;5110549;27;20431;-71
2023/01/15 00:46:07;;;;;;;10.85;2.78;;;6.80;99.90;;;;;;5070953;28;20575;-71
2023/01/15 00:48:33;;;;;;;12.10;2.93;;;6.50;99.90;;;;;;5080925;28;20486;-70
2023/01/15 00:50:59;;;;;;;17.33;2.83;;;6.60;99.90;;;;;;5059628;28;20775;-71
2023/01/15 00:53:25;;;;;;;14.73;3.53;;;6.60;99.90;;;;;;5082833;28;20439;-71
2023/01/15 00:55:50;;;;;;;12.73;3.50;;;6.50;99.90;;;;;;5073255;28;20757;-70
2023/01/15 00:58:16;;;;;;;11.17;1.70;;;6.90;99.90;;;;;;5072036;28;21336;-71
2023/01/15 01:00:42;;;;;;;12.57;2.63;;;6.60;99.90;;;;;;5070915;28;20923;-70
2023/01/15 01:03:07;;;;;;;12.03;3.03;;;6.60;99.90;;;;;;5081021;28;20804;-70
2023/01/15 01:05:33;;;;;;;11.73;2.30;;;6.50;99.90;;;;;;5067750;28;20418;-70
2023/01/15 01:07:59;;;;;;;13.47;2.63;;;6.50;99.90;;;;;;5069058;28;20438;-70
2023/01/15 01:10:25;;;;;;;14.70;3.00;;;6.50;99.90;;;;;;5075638;28;20422;-71
2023/01/15 01:12:51;;;;;;;10.32;2.65;;;6.50;99.90;;;;;;5090500;28;20510;-71
2023/01/15 01:15:21;;;;;;;8.63;1.67;;;6.60;99.90;;;;;;5069586;28;20869;-71
2023/01/15 01:17:47;;;;;;;15.23;3.10;;;6.60;99.90;;;;;;5106868;28;20501;-71
2023/01/15 01:20:14;;;;;;;14.23;3.10;;;6.50;99.90;;;;;;5074586;28;20843;-71
2023/01/15 01:22:40;;;;;;;14.77;3.67;;;6.50;99.90;;;;;;5068479;28;20475;-70
2023/01/15 01:25:06;;;;;;;13.57;2.40;;;6.40;99.90;;;;;;5066299;28;20431;-74
2023/01/15 01:27:32;;;;;;;15.90;3.30;;;6.40;99.90;;;;;;5073429;28;20438;-71
2023/01/15 01:29:58;;;;;;;12.30;2.60;;;6.40;99.90;;;;;;5068818;28;20514;-71
2023/01/15 01:32:23;;;;;;;19.33;4.13;;;6.40;99.90;;;;;;5073512;28;20428;-72
2023/01/15 01:34:49;;;;;;;13.67;2.73;;;6.40;99.90;;;;;;5098211;28;20510;-72
2023/01/15 01:37:15;;;;;;;16.53;3.33;;;6.40;99.90;;;;;;5078340;28;20540;-71
2023/01/15 01:39:41;;;;;;;19.93;3.67;;;6.40;99.90;;;;;;5073928;28;20420;-70
2023/01/15 01:42:15;;;;;;;13.20;3.28;;;6.40;99.90;;;;;;5069002;28;20789;-71
2023/01/15 01:44:44;;;;;;;11.90;2.38;;;6.40;99.90;;;;;;5074632;28;20932;-70
2023/01/15 01:47:19;;;;;;;16.10;3.03;;;6.40;99.90;;;;;;5070955;28;20435;-71
2023/01/15 01:49:46;;;;;;;13.20;3.20;;;6.40;99.90;;;;;;5067155;28;20442;-71
2023/01/15 01:52:20;;;;;;;14.02;2.55;;;6.90;99.90;;;;;;5082057;28;20958;-70
2023/01/15 01:54:48;;;;;;;15.35;3.42;;;6.90;99.90;;;;;;5077874;28;20420;-71
2023/01/15 01:57:15;;;;;;;16.25;3.05;;;6.40;99.90;;;;;;5073227;28;20412;-71
2023/01/15 01:59:41;;;;;;;13.38;2.28;;;6.70;99.90;;;;;;5069457;28;20467;-70
2023/01/15 02:02:07;;;;;;;15.15;3.38;;;6.40;99.90;;;;;;5100396;27;20450;-70
2023/01/15 02:04:34;;;;;;;12.47;3.00;;;6.40;99.90;;;;;;5077995;28;20422;-71
2023/01/15 02:07:02;;;;;;;14.45;3.28;;;6.20;99.90;;;;;;5077474;28;20412;-70
2023/01/15 02:09:28;;;;;;;20.67;3.33;;;6.40;99.90;;;;;;5079615;28;20438;-70
2023/01/15 02:11:57;;;;;;;16.88;3.92;;;6.30;99.90;;;;;;5077554;28;20423;-72
2023/01/15 02:14:33;;;;;;;12.77;2.20;;;6.40;99.90;;;;;;5070819;28;20430;-71
2023/01/15 02:17:21;;;;;;;13.88;2.70;;;6.30;99.90;;;;;;5071526;28;20900;-71
2023/01/15 02:20:00;;;;;;;16.38;3.30;;;6.30;99.90;;;;;;5109680;27;20471;-70
2023/01/15 02:22:43;;;;;;;14.73;2.33;;;6.90;99.90;;;;;;5083501;28;20505;-70
2023/01/15 02:25:19;;;;;;;15.50;2.50;;;6.30;99.90;;;;;;5082023;28;20507;-72
2023/01/15 02:27:56;;;;;;;13.50;2.83;;;6.40;99.90;;;;;;5079004;28;20425;-71
2023/01/15 02:30:32;;;;;;;14.35;3.88;;;6.40;99.90;;;;;;5075916;28;20426;-71
2023/01/15 02:33:08;;;;;;;15.60;3.47;;;6.30;99.90;;;;;;5084599;28;20496;-71
2023/01/15 02:35:40;;;;;;;16.85;3.03;;;6.40;99.90;;;;;;5072478;28;20420;-70
2023/01/15 02:38:10;;;;;;;14.27;2.97;;;6.40;99.90;;;;;;5079174;28;20996;-71
2023/01/15 02:40:38;;;;;;;14.45;4.10;;;6.40;99.90;;;;;;5084388;28;20422;-71
2023/01/15 02:43:06;;;;;;;13.52;2.95;;;6.60;99.90;;;;;;5081225;28;20495;-71
2023/01/15 02:45:35;;;;;;;18.95;3.95;;;6.30;99.90;;;;;;5069279;28;20454;-71
2023/01/15 02:48:07;;;;;;;14.35;2.90;;;7.80;99.90;;;;;;5068924;28;20799;-70
2023/01/15 02:50:38;;;;;;;16.40;4.18;;;6.30;99.90;;;;;;5076884;28;20422;-70
2023/01/15 02:53:08;;;;;;;20.08;3.78;;;6.30;99.90;;;;;;5073265;28;20420;-71
2023/01/15 02:55:39;;;;;;;12.25;2.75;;;6.40;99.90;;;;;;5070285;28;20430;-70
2023/01/15 02:58:10;;;;;;;15.40;3.08;;;6.30;99.90;;;;;;5084923;28;20420;-71
2023/01/15 03:00:40;;;;;;;16.70;5.00;;;6.30;99.90;;;;;;5077290;28;20450;-72
2023/01/15 03:03:15;;;;;;;14.20;3.33;;;7.80;99.90;;;;;;5080517;28;20799;-71
2023/01/15 03:06:01;;;;;;;15.98;3.40;;;6.30;99.90;;;;;;5080940;28;20938;-71
2023/01/15 03:08:27;;;;;;;14.75;2.95;;;6.40;99.90;;;;;;5074134;28;20449;-72
2023/01/15 03:11:02;;;;;;;11.15;2.17;;;6.40;99.90;;;;;;5076883;28;20431;-70
2023/01/15 03:13:42;;;;;;;15.40;3.78;;;6.40;99.90;;;;;;5067288;28;20964;-71
2023/01/15 03:16:34;;;;;;;13.68;3.28;;;6.30;99.90;;;;;;5081754;28;20415;-70
2023/01/15 03:19:24;;;;;;;14.15;2.60;;;6.30;99.90;;;;;;5075286;28;20415;-70
2023/01/15 03:22:24;;;;;;;12.82;2.92;;;6.30;99.90;;;;;;5068394;28;20457;-71
2023/01/15 03:25:02;;;;;;;14.30;3.20;;;6.30;99.90;;;;;;5068953;28;20430;-71
2023/01/15 03:27:28;;;;;;;14.88;2.70;;;6.20;99.90;;;;;;5100370;27;20432;-70
2023/01/15 03:30:06;;;;;;;14.48;2.92;;;6.30;99.90;;;;;;5052630;28;20799;-72
2023/01/15 03:32:33;;;;;;;15.95;3.22;;;6.40;99.90;;;;;;5074469;28;20412;-71
2023/01/15 03:34:59;;;;;;;11.48;2.00;;;6.30;99.90;;;;;;5071891;28;20541;-71
2023/01/15 03:37:27;;;;;;;17.00;3.42;;;7.10;99.90;;;;;;5079861;28;20482;-71
2023/01/15 03:39:55;;;;;;;14.18;3.05;;;6.30;99.90;;;;;;5066091;28;20450;-71
2023/01/15 03:43:39;;;;;;;12.90;2.67;;;6.40;99.90;;;;;;5073933;28;20426;-70
2023/01/15 03:45:39;;;;;;;19.40;3.50;;;6.20;99.90;;;;;;5081031;28;20516;-71
2023/01/15 03:48:19;;;;;;;11.48;3.67;;;6.20;99.90;;;;;;5078068;28;20424;-72
2023/01/15 03:51:01;;;;;;;14.15;2.75;;;6.40;99.90;;;;;;5073442;28;20431;-70
2023/01/15 03:53:38;;;;;;;14.82;3.53;;;6.20;99.90;;;;;;5071847;28;20457;-71
2023/01/15 03:56:18;;;;;;;13.20;2.58;;;6.20;99.90;;;;;;5073417;28;20429;-71
2023/01/15 03:58:59;;;;;;;17.38;4.38;;;6.20;99.90;;;;;;5083279;28;20425;-71
2023/01/15 04:01:35;;;;;;;14.88;2.55;;;6.20;99.90;;;;;;5069965;28;20419;-72
2023/01/15 04:04:02;;;;;;;13.07;2.67;;;6.10;99.90;;;;;;5066005;28;20442;-70
2023/01/15 04:06:30;;;;;;;12.00;2.45;;;6.20;99.90;;;;;;5091957;27;20822;-70
2023/01/15 04:08:57;;;;;;;17.60;3.57;;;6.10;99.90;;;;;;5067671;28;20432;-71
2023/01/15 04:11:25;;;;;;;11.60;2.25;;;6.10;99.90;;;;;;5069215;28;20506;-72
2023/01/15 04:13:51;;;;;;;13.75;3.85;;;6.10;99.90;;;;;;5069133;28;20514;-71
2023/01/15 04:16:31;;;;;;;11.25;2.60;;;6.10;99.90;;;;;;5069932;28;20840;-71
2023/01/15 04:18:57;;;;;;;15.23;3.63;;;6.10;99.90;;;;;;5070418;28;20428;-71
2023/01/15 04:21:23;;;;;;;12.73;2.75;;;6.20;99.90;;;;;;5079290;28;20820;-70
2023/01/15 04:23:49;;;;;;;9.38;2.00;;;6.10;99.90;;;;;;5077334;28;20493;-70
2023/01/15 04:26:15;;;;;;;10.33;2.73;;;6.10;99.90;;;;;;5084017;28;20423;-71
2023/01/15 04:28:40;;;;;;;12.68;2.90;;;7.00;99.90;;;;;;5075069;28;20422;-71
2023/01/15 04:31:06;;;;;;;13.57;2.75;;;6.10;99.90;;;;;;5073665;28;20820;-70
2023/01/15 04:33:32;;;;;;;15.02;2.50;;;6.10;99.90;;;;;;5068405;28;20990;-71
2023/01/15 04:35:59;;;;;;;11.40;2.57;;;6.00;99.90;;;;;;5082361;28;20497;-71
2023/01/15 04:38:25;;;;;;;11.65;3.15;;;6.10;99.90;;;;;;5081650;28;20426;-70
2023/01/15 04:46:21;;;;;;;11.70;2.70;;;6.30;99.90;;;;;;5077732;28;20421;-72
2023/01/15 04:48:47;;;;;;;17.23;4.43;;;5.90;99.90;;;;;;5073930;28;20430;-71
2023/01/15 04:51:13;;;;;;;14.37;3.23;;;5.90;99.90;;;;;;5066826;28;20424;-72
2023/01/15 04:53:38;;;;;;;18.40;4.10;;;5.80;99.90;;;;;;5059772;28;20426;-71
2023/01/15 04:56:05;;;;;;;13.07;3.10;;;6.20;99.90;;;;;;5065401;28;20431;-72
2023/01/15 04:58:32;;;;;;;10.48;2.60;;;5.90;99.90;;;;;;5071994;28;20457;-71
2023/01/15 05:01:01;;;;;;;12.38;2.92;;;5.90;99.90;;;;;;5072703;28;20538;-72
2023/01/15 05:03:29;;;;;;;9.93;3.17;;;5.80;99.90;;;;;;5058705;28;20459;-71
2023/01/15 05:05:54;;;;;;;18.52;3.20;;;5.70;99.90;;;;;;5070503;28;20428;-71
2023/01/15 05:08:20;;;;;;;15.10;3.43;;;5.70;99.90;;;;;;5075271;28;20824;-71
2023/01/15 05:10:46;;;;;;;13.00;2.22;;;5.90;99.90;;;;;;5067311;28;20436;-72
2023/01/15 05:13:11;;;;;;;13.98;3.20;;;5.70;99.90;;;;;;5068137;28;20412;-71
2023/01/15 05:15:39;;;;;;;15.50;2.75;;;5.70;99.90;;;;;;5072157;28;20441;-71
2023/01/15 05:18:05;;;;;;;16.13;3.92;;;5.70;99.90;;;;;;5069617;28;20502;-71
2023/01/15 05:20:34;;;;;;;16.98;4.18;;;5.70;99.90;;;;;;5067998;28;20435;-70
2023/01/15 05:23:00;;;;;;;11.40;2.93;;;5.60;99.90;;;;;;5099099;27;20513;-70
2023/01/15 05:25:25;;;;;;;17.70;3.33;;;5.60;99.90;;;;;;5071354;28;20788;-70
2023/01/15 05:27:51;;;;;;;11.70;2.70;;;5.60;99.90;;;;;;5080081;28;20763;-70
2023/01/15 05:30:17;;;;;;;19.83;4.33;;;5.60;99.90;;;;;;5069331;28;20518;-70
2023/01/15 05:32:42;;;;;;;13.23;2.13;;;5.60;99.90;;;;;;5081012;28;20507;-71
2023/01/15 05:35:08;;;;;;;16.88;3.17;;;5.60;99.90;;;;;;5081296;28;20483;-70
2023/01/15 05:37:34;;;;;;;17.02;4.15;;;5.70;99.90;;;;;;5082255;28;20778;-72
2023/01/15 05:40:00;;;;;;;9.73;2.08;;;5.50;99.90;;;;;;5075146;28;20477;-71
2023/01/15 05:42:25;;;;;;;13.15;2.85;;;5.60;99.90;;;;;;5073932;28;20787;-71
2023/01/15 05:44:51;;;;;;;9.63;2.22;;;5.50;99.90;;;;;;5074347;28;20432;-70
2023/01/15 05:47:17;;;;;;;13.15;2.42;;;6.00;99.90;;;;;;5073406;28;20455;-72
2023/01/15 05:49:43;;;;;;;15.30;4.17;;;5.50;99.90;;;;;;5066886;28;20489;-70
2023/01/15 05:52:08;;;;;;;11.57;3.07;;;5.60;99.90;;;;;;5068984;28;20416;-71
2023/01/15 05:54:35;;;;;;;17.83;4.30;;;5.50;99.90;;;;;;5100829;27;20439;-72
2023/01/15 05:57:01;;;;;;;12.23;2.55;;;5.50;99.90;;;;;;5079783;28;20448;-71
2023/01/15 05:59:29;;;;;;;13.70;2.35;;;5.60;99.90;;;;;;5074850;28;20431;-71
2023/01/15 06:01:55;;;;;;;12.10;2.10;;;5.50;99.90;;;;;;5056884;28;20495;-70
2023/01/15 06:04:23;;;;;;;10.68;2.50;;;5.50;99.90;;;;;;5081761;28;20439;-71
2023/01/15 06:06:50;;;;;;;10.40;2.47;;;5.40;99.90;;;;;;5072346;28;20419;-71
2023/01/15 06:09:17;;;;;;;8.20;2.37;;;5.50;99.90;;;;;;5078505;28;20542;-71
2023/01/15 06:11:42;;;;;;;14.45;2.60;;;5.90;99.90;;;;;;5072959;28;20786;-71
2023/01/15 06:14:11;;;;;;;11.90;2.50;;;5.50;99.90;;;;;;5075450;28;20421;-72
2023/01/15 06:16:36;;;;;;;13.02;2.55;;;5.50;99.90;;;;;;5073060;28;20423;-72
2023/01/15 06:19:03;;;;;;;10.73;2.87;;;5.60;99.90;;;;;;5078273;28;20923;-69
2023/01/15 06:21:31;;;;;;;10.30;3.28;;;5.50;99.90;;;;;;5075029;28;20522;-71
2023/01/15 06:23:56;;;;;;;12.60;3.00;;;5.50;99.90;;;;;;5075550;28;20481;-73
2023/01/15 06:26:22;;;;;;;13.37;3.30;;;5.70;99.90;;;;;;5076473;28;20466;-70
2023/01/15 06:28:48;;;;;;;13.23;2.30;;;5.40;99.90;;;;;;5078727;28;20432;-71
2023/01/15 06:31:17;;;;;;;13.90;3.03;;;5.50;99.90;;;;;;5072668;28;20447;-69
2023/01/15 06:33:44;;;;;;;10.65;2.33;;;5.40;99.90;;;;;;5069571;28;20917;-69
2023/01/15 06:36:21;;;;;;;8.27;2.55;;;5.50;99.90;;;;;;5077627;28;20465;-70
2023/01/15 06:38:47;;;;;;;9.35;2.10;;;5.30;99.90;;;;;;5084700;28;20428;-70
2023/01/15 06:49:33;;;;;;;9.70;2.10;;;5.40;99.90;;;;;;5080982;28;20414;-70
2023/01/15 06:52:00;;;;;;;13.32;2.95;;;5.40;99.90;;;;;;5071792;28;20429;-70
2023/01/15 06:54:26;;;;;;;11.70;2.70;;;5.40;99.90;;;;;;5076864;28;20833;-70
2023/01/15 06:56:51;;;;;;;11.43;2.15;;;5.40;99.90;;;;;;5078977;28;20421;-71
2023/01/15 06:59:19;;;;;;;12.97;2.73;;;5.30;99.90;;;;;;5077809;28;20944;-70
2023/01/15 07:01:45;;;;;;;8.30;1.95;;;5.40;99.90;;;;;;5071852;28;20418;-70
2023/01/15 07:04:11;;;;;;;10.57;2.33;;;5.30;99.90;;;;;;5068655;28;20427;-71
2023/01/15 07:06:36;;;;;;;10.88;3.10;;;5.20;99.90;;;;;;5082668;28;20425;-71
2023/01/15 07:09:03;;;;;;;15.48;2.88;;;5.20;99.90;;;;;;5087137;28;20786;-71
2023/01/15 07:11:28;;;;;;;12.77;2.50;;;5.40;99.90;;;;;;5070324;28;20427;-71
2023/01/15 07:14:06;;;;;;;11.30;3.17;;;5.40;99.90;;;;;;5068033;28;20419;-71
2023/01/15 07:16:32;;;;;;;14.07;3.03;;;6.10;99.90;;;;;;5078537;28;20518;-71
2023/01/15 07:18:58;;;;;;;14.88;2.50;;;5.60;99.90;;;;;;5079008;28;20424;-71
2023/01/15 07:21:24;;;;;;;11.17;2.67;;;5.40;99.90;;;;;;5076518;28;20777;-72
2023/01/15 07:23:49;;;;;;;8.70;1.77;;;5.40;99.90;;;;;;5069371;28;20439;-71
2023/01/15 07:26:15;;;;;;;12.53;2.77;;;5.40;99.90;;;;;;5084699;28;20427;-72
2023/01/15 07:28:41;;;;;;;10.55;2.20;;;5.60;99.90;;;;;;5088099;28;20476;-71
2023/01/15 07:31:06;;;;;;;8.90;1.70;;;5.40;99.90;;;;;;5071472;28;21170;-71
2023/01/15 07:33:32;;;;;;;7.20;1.98;;;5.40;99.90;;;;;;5069928;28;20439;-71
2023/01/15 07:36:01;;;;;;;9.90;1.95;;;5.40;99.90;;;;;;5072061;28;20422;-73
2023/01/15 07:38:27;;;;;;;9.73;2.55;;;6.40;99.90;;;;;;5085445;28;20483;-71
2023/01/15 07:51:54;;;;;;;13.45;2.50;;;5.40;99.90;;;;;;5077275;28;20425;-71
2023/01/15 07:54:20;;;;;;;7.90;2.70;;;5.40;99.90;;;;;;5079008;28;20446;-71
2023/01/15 07:56:45;;;;;;;14.33;2.63;;;5.50;99.90;;;;;;5083856;28;20425;-71
2023/01/15 07:59:11;;;;;;;9.70;2.10;;;5.60;99.90;;;;;;5066546;28;20426;-72
2023/01/15 08:01:37;;;;;;;18.20;3.50;;;5.50;99.90;;;;;;5059741;28;20420;-70
2023/01/15 08:04:03;;;;;;;9.30;2.25;;;5.50;99.90;;;;;;5072263;28;20452;-70
2023/01/15 08:06:28;;;;;;;11.88;2.90;;;5.40;99.90;;;;;;5080883;28;20420;-70
2023/01/15 08:08:54;;;;;;;12.23;2.63;;;5.40;99.90;;;;;;5065005;28;20917;-71
2023/01/15 08:16:48;;;;;;;11.95;3.58;;;5.50;99.90;;;;;;5107034;27;20543;-71
2023/01/15 08:19:13;;;;;;;14.80;3.53;;;5.50;99.90;;;;;;5065348;28;20935;-71
2023/01/15 08:21:39;;;;;;;10.82;3.38;;;5.40;99.90;;;;;;5079752;28;20507;-71
2023/01/15 08:24:05;;;;;;;12.15;2.55;;;5.40;99.90;;;;;;5069134;28;20427;-71
2023/01/15 08:26:31;;;;;;;13.90;2.75;;;5.30;99.90;;;;;;5082237;28;20424;-71
2023/01/15 08:28:58;;;;;;;12.17;2.80;;;5.40;99.90;;;;;;5048931;28;20415;-70
2023/01/15 08:31:23;;;;;;;11.33;2.50;;;5.40;99.90;;;;;;5070661;28;20417;-71
2023/01/15 08:33:49;;;;;;;14.45;2.03;;;5.30;99.90;;;;;;5098808;27;20771;-70
2023/01/15 08:36:16;;;;;;;13.05;2.03;;;5.40;99.90;;;;;;5068439;28;20430;-71
2023/01/15 08:38:42;;;;;;;10.07;2.53;;;5.50;99.90;;;;;;5091201;28;20427;-71
2023/01/15 08:41:09;;;;;;;13.23;3.35;;;5.30;99.90;;;;;;5068347;28;20849;-71
2023/01/15 08:43:34;;;;;;;14.52;3.60;;;4.00;99.90;;;;;;5052246;28;20852;-70
2023/01/15 08:46:03;;;;;;;14.53;2.33;;;4.80;99.90;;;;;;5059588;28;20438;-71
2023/01/15 08:48:30;;;;;;;10.00;2.35;;;4.80;99.90;;;;;;5061952;28;20432;-70
2023/01/15 08:50:56;;;;;;;15.73;3.53;;;4.60;99.90;;;;;;5083944;28;20787;-72
2023/01/15 08:53:23;;;;;;;14.70;2.50;;;4.70;99.90;;;;;;5077614;28;20836;-71
2023/01/15 08:55:49;;;;;;;12.90;3.05;;;4.70;99.90;;;;;;5076096;28;21022;-72
2023/01/15 08:58:16;;;;;;;10.45;1.83;;;4.80;99.90;;;;;;5079339;28;20434;-72
2023/01/15 09:00:43;;;;;;;10.38;2.47;;;4.90;99.90;;;;;;5104143;27;20422;-72
2023/01/15 09:03:08;;;;;;;7.97;1.60;;;5.60;99.90;;;;;;5084797;28;20950;-70
2023/01/15 09:05:36;;;;;;;18.25;3.25;;;5.00;99.90;;;;;;5086210;28;20419;-72
2023/01/15 09:08:04;;;;;;;19.85;3.22;;;5.10;99.90;;;;;;5071974;28;20445;-70
2023/01/15 09:10:29;;;;;;;16.10;3.15;;;5.20;99.90;;;;;;5078276;28;20757;-72
2023/01/15 09:12:59;;;;;;;18.90;3.63;;;5.90;99.90;;;;;;5058983;28;20421;-71
2023/01/15 09:15:24;;;;;;;14.65;3.60;;;5.40;99.90;;;;;;5082241;28;20434;-70
2023/01/15 09:17:50;;;;;;;12.67;3.03;;;5.40;99.90;;;;;;5064462;28;20413;-73
2023/01/15 09:20:16;;;;;;;17.13;3.37;;;5.50;99.90;;;;;;5090480;28;20983;-72
2023/01/15 09:22:42;;;;;;;14.07;3.40;;;5.50;99.90;;;;;;5087285;28;20425;-71
2023/01/15 09:25:08;;;;;;;11.35;2.25;;;5.70;99.90;;;;;;5079762;28;20437;-71
2023/01/15 09:27:34;;;;;;;15.85;4.00;;;5.80;99.90;;;;;;5058543;28;20435;-72
2023/01/15 09:30:00;;;;;;;9.63;2.55;;;5.90;99.90;;;;;;5073446;28;20430;-69
2023/01/15 09:32:25;;;;;;;12.23;2.80;;;5.70;99.90;;;;;;5077432;28;20442;-71
2023/01/15 09:34:51;;;;;;;13.23;2.80;;;5.80;99.90;;;;;;5084829;28;20578;-70
2023/01/15 09:37:17;;;;;;;14.07;3.75;;;5.80;99.90;;;;;;5054279;28;20419;-71
2023/01/15 09:39:42;;;;;;;17.58;2.70;;;5.80;99.90;;;;;;5070817;28;20417;-70
2023/01/15 09:42:30;;;;;;;15.52;3.80;;;5.80;99.90;;;;;;5056200;28;20427;-71
2023/01/15 09:45:17;;;;;;;13.65;2.38;;;5.90;99.90;;;;;;5083347;28;20964;-72
2023/01/15 09:47:55;;;;;;;11.10;2.57;;;5.90;99.90;;;;;;5067402;28;20983;-73
2023/01/15 09:50:33;;;;;;;14.98;3.50;;;6.10;99.90;;;;;;5070570;28;20430;-70
2023/01/15 09:53:18;;;;;;;11.93;3.67;;;6.10;99.90;;;;;;5073611;28;20448;-70
2023/01/15 09:55:49;;;;;;;15.80;3.13;;;6.30;99.90;;;;;;5070455;28;20522;-70
2023/01/15 09:58:18;;;;;;;10.88;2.50;;;6.30;99.90;;;;;;5084212;28;20436;-71
2023/01/15 10:00:47;;;;;;;12.57;3.35;;;6.30;99.90;;;;;;5057800;28;20467;-70
2023/01/15 10:03:19;;;;;;;13.20;3.47;;;6.40;99.90;;;;;;5069855;28;20774;-71
2023/01/15 10:05:55;;;;;;;15.83;2.70;;;6.50;99.90;;;;;;5087926;27;20518;-70
2023/01/15 10:08:36;;;;;;;12.53;2.30;;;6.50;99.90;;;;;;5074588;28;20457;-71
2023/01/15 10:11:03;;;;;;;15.75;2.83;;;5.50;99.90;;;;;;5075398;28;20432;-71
2023/01/15 10:13:38;;;;;;;11.43;1.83;;;6.60;99.90;;;;;;5079290;28;20428;-70
2023/01/15 10:16:05;;;;;;;13.53;2.97;;;6.70;99.90;;;;;;5085085;28;20453;-70
2023/01/15 10:18:30;;;;;;;17.30;4.25;;;6.80;99.90;;;;;;5077670;28;20419;-72
2023/01/15 10:21:11;;;;;;;17.83;3.10;;;6.90;99.90;;;;;;5077143;28;20431;-70
2023/01/15 10:24:25;;;;;;;12.50;2.27;;;6.90;99.90;;;;;;5073519;28;20502;-72
2023/01/15 10:26:58;;;;;;;12.13;3.40;;;6.90;99.90;;;;;;5095611;27;20462;-70
2023/01/15 10:29:48;;;;;;;12.90;3.47;;;6.80;99.90;;;;;;5068576;28;20563;-72
2023/01/15 10:32:38;;;;;;;10.63;3.00;;;6.90;99.90;;;;;;5083741;28;20846;-71
2023/01/15 10:35:22;;;;;;;17.07;3.73;;;7.00;99.90;;;;;;5113146;27;20487;-70
2023/01/15 10:38:01;;;;;;;12.13;3.25;;;6.90;99.90;;;;;;5108916;27;20780;-72
2023/01/15 10:41:01;;;;;;;17.08;2.85;;;6.80;99.90;;;;;;5111564;27;20435;-71
2023/01/15 10:43:45;;;;;;;15.60;2.22;;;6.80;99.90;;;;;;5077489;28;20517;-71
2023/01/15 10:46:16;;;;;;;15.40;3.10;;;6.80;99.90;;;;;;5078334;28;20475;-70
2023/01/15 10:48:46;;;;;;;14.63;3.08;;;6.70;99.90;;;;;;5081901;28;20418;-71
2023/01/15 10:51:17;;;;;;;10.55;2.13;;;6.80;99.90;;;;;;5076572;28;20984;-71
2023/01/15 10:54:04;;;;;;;14.95;3.85;;;6.70;99.90;;;;;;5078100;28;20423;-70
2023/01/15 10:56:50;;;;;;;17.25;2.40;;;6.70;99.90;;;;;;5106405;27;20427;-71
2023/01/15 10:59:21;;;;;;;12.80;2.53;;;6.90;99.90;;;;;;5084246;28;20422;-71
2023/01/15 11:01:52;;;;;;;11.60;3.40;;;7.10;99.90;;;;;;5082923;28;20434;-72
2023/01/15 11:04:18;;;;;;;16.27;3.20;;;7.30;99.90;;;;;;5078674;28;20435;-72
2023/01/15 11:06:45;;;;;;;12.65;3.05;;;7.40;99.90;;;;;;5059709;28;20766;-72
2023/01/15 11:09:34;;;;;;;15.80;2.60;;;7.50;99.90;;;;;;5081300;28;20435;-71
2023/01/15 11:21:14;;;;;;;14.40;3.30;;;7.20;99.90;;;;;;5104892;27;20506;-71
2023/01/15 11:23:40;;;;;;;15.35;3.97;;;7.20;99.90;;;;;;5072099;28;20900;-71
2023/01/15 11:26:06;;;;;;;17.02;3.78;;;7.20;99.90;;;;;;5074003;28;20432;-71
2023/01/15 11:28:41;;;;;;;14.05;3.53;;;7.20;99.90;;;;;;5079602;28;20444;-69
2023/01/15 11:31:09;;;;;;;11.45;3.10;;;7.20;99.90;;;;;;5087337;28;20440;-70
2023/01/15 11:33:36;;;;;;;15.43;3.10;;;7.10;99.90;;;;;;5060524;28;20430;-71
2023/01/15 11:36:17;;;;;;;14.97;3.47;;;7.90;99.90;;;;;;5076048;28;20572;-71
2023/01/15 11:38:45;;;;;;;15.23;3.33;;;7.10;99.90;;;;;;5080532;28;20831;-71
2023/01/15 11:52:42;;;;;;;11.05;3.15;;;7.10;99.90;;;;;;5081180;28;21198;-70
2023/01/15 11:55:20;;;;;;;17.25;3.95;;;7.10;99.90;;;;;;5051325;28;20435;-71
2023/01/15 11:57:48;;;;;;;14.75;2.80;;;7.20;99.90;;;;;;5053508;28;20439;-72
2023/01/15 12:00:27;;;;;;;13.07;2.97;;;7.10;99.90;;;;;;5077205;28;20475;-71
2023/01/15 12:03:04;;;;;;;12.18;3.20;;;7.20;99.90;;;;;;5077188;28;20424;-70
2023/01/15 12:05:35;;;;;;;14.80;3.43;;;7.20;99.90;;;;;;5080747;28;20425;-69
2023/01/15 12:08:19;;;;;;;15.50;3.10;;;7.10;99.90;;;;;;5056610;28;21057;-71
2023/01/15 12:11:03;;;;;;;12.32;2.90;;;7.20;99.90;;;;;;5091027;28;20420;-71
2023/01/15 12:14:01;;;;;;;13.85;3.42;;;7.20;99.90;;;;;;5063914;28;20427;-71
2023/01/15 12:16:33;;;;;;;16.65;3.65;;;7.20;99.90;;;;;;5078595;27;20437;-71
2023/01/15 12:19:21;;;;;;;15.65;3.17;;;7.10;99.90;;;;;;5085962;28;20431;-71
2023/01/15 12:22:08;;;;;;;14.32;4.03;;;7.10;99.90;;;;;;5064096;28;20941;-71
2023/01/15 12:24:41;;;;;;;13.60;3.58;;;7.00;99.90;;;;;;5050167;28;20434;-71
2023/01/15 12:27:16;;;;;;;14.20;3.45;;;6.90;99.90;;;;;;5083861;28;20419;-72
2023/01/15 12:29:59;;;;;;;12.93;3.47;;;6.80;99.90;;;;;;5050174;28;20433;-70
2023/01/15 12:32:32;;;;;;;14.00;3.25;;;6.70;99.90;;;;;;5051456;28;20471;-71
2023/01/15 12:35:24;;;;;;;10.77;2.43;;;6.00;99.90;;;;;;5048531;28;20438;-72
2023/01/15 12:37:57;;;;;;;14.18;3.22;;;5.40;99.90;;;;;;5096604;27;21021;-72
2023/01/15 12:40:46;;;;;;;11.10;2.67;;;5.40;99.90;;;;;;5074592;28;20438;-72
2023/01/15 12:46:27;;;;;;;9.85;2.80;;;5.50;99.90;;;;;;5075099;28;20612;-72
2023/01/15 12:49:18;;;;;;;10.98;2.50;;;5.30;99.90;;;;;;5062908;28;20521;-73
2023/01/15 12:52:13;;;;;;;8.55;1.90;;;5.30;99.90;;;;;;5062952;28;20504;-73
2023/01/15 12:54:54;;;;;;;9.18;2.72;;;5.30;99.90;;;;;;5075609;28;20456;-73
2023/01/15 12:57:35;;;;;;;8.88;1.85;;;5.00;99.90;;;;;;5074586;28;20526;-72
2023/01/15 13:00:38;;;;;;;11.13;2.05;;;5.30;99.90;;;;;;5077975;28;20572;-72
2023/01/15 13:03:19;;;;;;;11.35;2.08;;;5.50;99.90;;;;;;5082818;28;20414;-73
2023/01/15 13:05:59;;;;;;;9.65;2.20;;;5.10;99.90;;;;;;5111879;28;20419;-73
2023/01/15 13:08:54;;;;;;;5.88;1.65;;;5.30;99.90;;;;;;5080124;28;20433;-72
2023/01/15 13:11:20;;;;;;;8.32;1.98;;;5.30;99.90;;;;;;5086842;28;20406;-72
2023/01/15 13:13:56;;;;;;;7.30;1.07;;;5.10;99.90;;;;;;5079573;28;20509;-72
2023/01/15 13:16:47;;;;;;;6.57;1.63;;;5.50;99.90;;;;;;5068455;28;20416;-72
2023/01/15 13:19:37;;;;;;;5.35;2.08;;;5.40;99.90;;;;;;5083051;28;20410;-72
2023/01/15 13:22:11;;;;;;;10.90;2.08;;;5.20;99.90;;;;;;5067903;28;20463;-72
2023/01/15 13:25:10;;;;;;;13.18;3.08;;;5.30;99.90;;;;;;5061559;28;20455;-72
2023/01/15 13:27:44;;;;;;;10.30;2.40;;;5.30;99.90;;;;;;5082038;28;20452;-72
2023/01/15 13:30:31;;;;;;;11.45;3.08;;;5.50;99.90;;;;;;5079967;28;20421;-73
2023/01/15 13:33:33;;;;;;;10.63;2.60;;;5.30;99.90;;;;;;5080942;28;20483;-72
2023/01/15 13:36:13;;;;;;;9.77;1.42;;;5.30;99.90;;;;;;5072467;28;20487;-72
2023/01/15 13:38:44;;;;;;;9.48;2.15;;;5.50;99.90;;;;;;5080474;28;20445;-74
2023/01/15 13:42:30;;;;;;;10.85;2.08;;;5.40;99.90;;;;;;5078891;28;20433;-75
2023/01/15 13:44:32;;;;;;;8.68;2.33;;;5.40;99.90;;;;;;5079000;28;20438;-72
2023/01/15 13:47:17;;;;;;;10.18;2.85;;;6.80;99.90;;;;;;5080231;28;20426;-74
2023/01/15 13:49:51;;;;;;;11.30;2.47;;;5.80;99.90;;;;;;5100248;27;21003;-73
2023/01/15 13:52:36;;;;;;;14.70;3.85;;;5.60;99.90;;;;;;5079898;28;20923;-72
2023/01/15 13:55:39;;;;;;;17.00;2.83;;;5.40;99.90;;;;;;5096714;28;20512;-70
2023/01/15 13:58:22;;;;;;;9.63;2.30;;;5.50;99.90;;;;;;5078576;28;20418;-71
2023/01/15 14:00:48;;;;;;;16.37;3.37;;;5.90;99.90;;;;;;5064087;28;20478;-73
2023/01/15 14:03:26;;;;;;;12.15;2.78;;;5.60;99.90;;;;;;5079763;28;20815;-72
2023/01/15 14:05:57;;;;;;;14.10;3.30;;;5.90;99.90;;;;;;5086446;28;20417;-72
2023/01/15 14:08:44;;;;;;;10.55;2.72;;;5.70;99.90;;;;;;5082764;28;20467;-71
2023/01/15 14:11:28;;;;;;;14.88;1.95;;;5.90;99.90;;;;;;5088734;28;20401;-74